Time;durP1;ratioP1;P1;durP2;ratioP2;P2;SDS_P1;SDS_P2;PMS_P1;PMS_P2;Temp;Humidity;BMP_temperature;BMP_pressure;BME280_temperature;BME280_humidity;BME280_pressure;Samples;Min_cycle;Max_cycle;Signal;HPM_P1;HPM_P2
2023/09/02 00:01:44;;;;;;;7.15;1.80;;;16.60;99.90;;;;;;5012305;28;20289;-60
2023/09/02 00:04:12;;;;;;;4.78;1.50;;;16.60;99.90;;;;;;5012428;28;20203;-60
2023/09/02 00:06:40;;;;;;;4.72;1.40;;;16.50;99.90;;;;;;5011833;28;20219;-60
2023/09/02 00:09:08;;;;;;;9.48;1.45;;;16.40;99.90;;;;;;5012316;28;20230;-60
2023/09/02 00:11:36;;;;;;;6.60;1.60;;;16.30;99.90;;;;;;5012484;28;20211;-60
2023/09/02 00:14:04;;;;;;;10.32;1.42;;;16.30;99.90;;;;;;5012599;28;20219;-59
2023/09/02 00:16:33;;;;;;;8.32;1.45;;;16.30;99.90;;;;;;5011982;28;20258;-60
2023/09/02 00:19:03;;;;;;;6.90;1.30;;;16.30;99.90;;;;;;5011530;28;20257;-60
2023/09/02 00:21:32;;;;;;;8.32;1.50;;;16.20;99.90;;;;;;5012469;28;20199;-61
2023/09/02 00:24:05;;;;;;;5.72;1.38;;;16.20;99.90;;;;;;5011561;28;20206;-61
2023/09/02 00:26:33;;;;;;;2.28;0.95;;;16.20;99.90;;;;;;5010121;28;20316;-60
2023/09/02 00:29:01;;;;;;;3.50;1.00;;;16.20;99.90;;;;;;5013241;28;20242;-60
2023/09/02 00:31:29;;;;;;;12.48;1.88;;;16.20;99.90;;;;;;5012815;28;20683;-60
2023/09/02 00:33:59;;;;;;;5.22;1.25;;;16.20;99.90;;;;;;5007282;28;20207;-60
2023/09/02 00:36:30;;;;;;;3.53;1.33;;;16.20;99.90;;;;;;5006115;28;20223;-59
2023/09/02 00:38:59;;;;;;;1.48;1.08;;;16.10;99.90;;;;;;5008486;28;20310;-59
2023/09/02 00:41:30;;;;;;;1.90;1.15;;;16.10;99.90;;;;;;5012402;28;20253;-57
2023/09/02 00:43:58;;;;;;;5.20;1.55;;;16.10;99.90;;;;;;5013171;28;20206;-60
2023/09/02 00:46:25;;;;;;;6.00;1.23;;;16.00;99.90;;;;;;5014504;28;20695;-59
2023/09/02 00:48:53;;;;;;;6.07;1.30;;;16.00;99.90;;;;;;5012264;28;20583;-59
2023/09/02 00:51:23;;;;;;;1.98;1.13;;;16.00;99.90;;;;;;5015607;28;20207;-60
2023/09/02 00:53:51;;;;;;;5.18;1.40;;;15.90;99.90;;;;;;5010013;28;20638;-60
2023/09/02 00:56:18;;;;;;;3.92;1.30;;;15.90;99.90;;;;;;5008656;28;20702;-60
2023/09/02 00:58:46;;;;;;;7.53;1.30;;;15.90;99.90;;;;;;5017049;28;20293;-60
2023/09/02 01:01:14;;;;;;;6.30;1.35;;;15.90;99.90;;;;;;5011607;28;20813;-60
2023/09/02 01:03:42;;;;;;;1.92;1.10;;;15.80;99.90;;;;;;5015778;28;20207;-60
2023/09/02 01:06:10;;;;;;;4.07;1.00;;;15.80;99.90;;;;;;5014227;28;20223;-60
2023/09/02 01:08:40;;;;;;;4.15;1.38;;;15.80;99.90;;;;;;5012162;28;20198;-60
2023/09/02 01:11:07;;;;;;;6.95;0.90;;;15.80;99.90;;;;;;5012850;28;20238;-60
2023/09/02 01:13:36;;;;;;;5.57;1.45;;;15.70;99.90;;;;;;5016961;28;20285;-60
2023/09/02 01:16:04;;;;;;;4.18;1.27;;;15.70;99.90;;;;;;5013800;28;20778;-60
2023/09/02 01:18:33;;;;;;;3.03;1.23;;;15.70;99.90;;;;;;5012378;28;20695;-60
2023/09/02 01:21:38;;;;;;;10.60;1.40;;;15.70;99.90;;;;;;5014590;28;20229;-60
2023/09/02 01:24:42;;;;;;;4.40;1.23;;;15.60;99.90;;;;;;5003033;28;20285;-59
2023/09/02 01:27:18;;;;;;;5.25;1.33;;;15.60;99.90;;;;;;4975121;28;20234;-60
2023/09/02 01:29:49;;;;;;;7.72;1.30;;;15.60;99.90;;;;;;5014641;28;20206;-59
2023/09/02 01:32:17;;;;;;;2.30;1.13;;;15.60;99.90;;;;;;5014723;28;20299;-59
2023/09/02 01:34:45;;;;;;;8.45;1.35;;;15.50;99.90;;;;;;5019964;28;20297;-60
2023/09/02 01:37:12;;;;;;;4.40;1.20;;;15.50;99.90;;;;;;5011860;28;20731;-59
2023/09/02 01:39:40;;;;;;;5.32;1.30;;;15.50;99.90;;;;;;5010501;28;20210;-60
2023/09/02 01:42:08;;;;;;;5.70;1.40;;;15.50;99.90;;;;;;5009616;28;20258;-60
2023/09/02 01:44:37;;;;;;;8.18;1.30;;;15.50;99.90;;;;;;5020237;28;20688;-60
2023/09/02 01:47:05;;;;;;;3.80;1.25;;;15.50;99.90;;;;;;5006191;28;20670;-60
2023/09/02 01:49:33;;;;;;;5.38;1.55;;;15.50;99.90;;;;;;5010661;28;20219;-59
2023/09/02 01:52:01;;;;;;;4.88;1.45;;;15.40;99.90;;;;;;5007797;28;20286;-58
2023/09/02 01:54:29;;;;;;;5.43;1.35;;;15.40;99.90;;;;;;5015192;28;20207;-59
2023/09/02 01:56:57;;;;;;;4.55;1.50;;;15.40;99.90;;;;;;5012988;28;20323;-61
2023/09/02 01:59:25;;;;;;;7.40;1.42;;;15.40;99.90;;;;;;5013015;28;20203;-59
2023/09/02 02:01:54;;;;;;;6.40;1.38;;;15.40;99.90;;;;;;5013134;28;20211;-60
2023/09/02 02:04:25;;;;;;;5.82;1.40;;;15.30;99.90;;;;;;5012771;28;20203;-59
2023/09/02 02:06:55;;;;;;;7.22;1.10;;;15.30;99.90;;;;;;5013055;28;20274;-60
2023/09/02 02:09:26;;;;;;;3.33;1.00;;;15.30;99.90;;;;;;5014225;28;20242;-60
2023/09/02 02:11:54;;;;;;;7.30;1.10;;;15.30;99.90;;;;;;5011603;28;20217;-59
2023/09/02 02:14:22;;;;;;;1.23;1.13;;;15.20;99.90;;;;;;5012303;28;20234;-58
2023/09/02 02:16:49;;;;;;;7.32;1.40;;;15.20;99.90;;;;;;5012295;28;20319;-59
2023/09/02 02:19:18;;;;;;;6.45;1.08;;;15.20;99.90;;;;;;5011896;28;20796;-60
2023/09/02 02:21:46;;;;;;;11.20;1.17;;;15.20;99.90;;;;;;5012847;28;20211;-59
2023/09/02 02:24:14;;;;;;;7.95;1.60;;;15.10;99.90;;;;;;5011801;28;20239;-59
2023/09/02 02:26:42;;;;;;;6.18;1.10;;;15.10;99.90;;;;;;5010768;28;20290;-59
2023/09/02 02:29:11;;;;;;;2.55;1.08;;;15.10;99.90;;;;;;5014918;28;20212;-59
2023/09/02 02:31:38;;;;;;;7.53;1.30;;;15.10;99.90;;;;;;5014057;28;20308;-59
2023/09/02 02:34:06;;;;;;;6.13;1.33;;;15.10;99.90;;;;;;5014947;28;20697;-59
2023/09/02 02:36:36;;;;;;;2.63;0.93;;;15.10;99.90;;;;;;5017453;28;20647;-59
2023/09/02 02:39:04;;;;;;;4.50;1.10;;;15.10;99.90;;;;;;5014620;28;20572;-59
2023/09/02 02:41:32;;;;;;;4.35;1.13;;;15.10;99.90;;;;;;5013978;28;20575;-59
2023/09/02 02:44:00;;;;;;;7.90;1.00;;;15.00;99.90;;;;;;5014764;28;20300;-59
2023/09/02 02:46:28;;;;;;;4.97;1.17;;;15.00;99.90;;;;;;5014319;28;20660;-59
2023/09/02 02:48:56;;;;;;;5.10;1.50;;;15.00;99.90;;;;;;5014699;28;20338;-59
2023/09/02 02:51:24;;;;;;;2.42;0.85;;;15.00;99.90;;;;;;5014466;28;20277;-59
2023/09/02 02:53:53;;;;;;;7.28;1.52;;;15.00;99.90;;;;;;5014959;28;20231;-59
2023/09/02 02:56:21;;;;;;;1.52;0.98;;;15.00;99.90;;;;;;5014279;28;20227;-60
2023/09/02 02:58:49;;;;;;;6.05;1.20;;;15.00;99.90;;;;;;5013985;28;20204;-60
2023/09/02 03:01:17;;;;;;;4.72;1.48;;;15.00;99.90;;;;;;5013640;28;20207;-60
2023/09/02 03:03:45;;;;;;;4.50;1.45;;;15.00;99.90;;;;;;5012509;28;20207;-60
2023/09/02 03:06:16;;;;;;;4.68;1.30;;;15.00;99.90;;;;;;5011046;28;20223;-60
2023/09/02 03:08:44;;;;;;;9.05;1.10;;;14.90;99.90;;;;;;5017893;28;20319;-60
2023/09/02 03:11:13;;;;;;;4.40;0.95;;;14.90;99.90;;;;;;5012076;28;20254;-60
2023/09/02 03:13:41;;;;;;;4.75;1.30;;;14.90;99.90;;;;;;5016045;28;20203;-60
2023/09/02 03:16:09;;;;;;;2.15;1.20;;;14.90;99.90;;;;;;5014868;28;20602;-60
2023/09/02 03:18:37;;;;;;;5.25;1.20;;;14.90;99.90;;;;;;5020194;28;20657;-60
2023/09/02 03:21:06;;;;;;;4.68;1.17;;;14.80;99.90;;;;;;5017524;28;20303;-60
2023/09/02 03:23:34;;;;;;;4.47;1.10;;;14.80;99.90;;;;;;5018150;28;20584;-60
2023/09/02 03:26:09;;;;;;;2.95;1.02;;;14.80;99.90;;;;;;5011054;28;20316;-60
2023/09/02 03:28:38;;;;;;;1.55;1.00;;;14.80;99.90;;;;;;5016845;28;20229;-60
2023/09/02 03:31:07;;;;;;;8.90;1.48;;;14.80;99.90;;;;;;5013644;28;20242;-60
2023/09/02 03:33:35;;;;;;;4.22;1.45;;;14.80;99.90;;;;;;5012271;28;20294;-60
2023/09/02 03:36:03;;;;;;;3.22;1.63;;;14.80;99.90;;;;;;5013499;28;20251;-61
2023/09/02 03:38:31;;;;;;;7.78;1.23;;;14.80;99.90;;;;;;5012577;28;20286;-60
2023/09/02 03:40:59;;;;;;;2.20;1.25;;;14.80;99.90;;;;;;5012540;28;20247;-60
2023/09/02 03:43:27;;;;;;;4.60;1.08;;;14.80;99.90;;;;;;5011776;28;20227;-60
2023/09/02 03:45:59;;;;;;;7.60;1.20;;;14.80;99.90;;;;;;5016284;28;20809;-60
2023/09/02 03:48:27;;;;;;;6.97;1.27;;;14.80;99.90;;;;;;5016157;28;20314;-59
2023/09/02 03:51:03;;;;;;;2.67;1.00;;;14.80;99.90;;;;;;5012829;28;20208;-59
2023/09/02 03:53:31;;;;;;;4.45;1.30;;;14.80;99.90;;;;;;5016542;28;20206;-59
2023/09/02 03:55:59;;;;;;;4.13;1.30;;;14.80;99.90;;;;;;5006644;28;20227;-60
2023/09/02 03:58:29;;;;;;;4.38;1.45;;;14.80;99.90;;;;;;5012792;28;20282;-59
2023/09/02 04:00:57;;;;;;;6.25;1.80;;;14.80;99.90;;;;;;5015431;28;20211;-60
2023/09/02 04:03:26;;;;;;;3.15;1.60;;;14.70;99.90;;;;;;5017782;28;20737;-59
2023/09/02 04:05:54;;;;;;;4.13;1.23;;;14.70;99.90;;;;;;5014332;28;20680;-58
2023/09/02 04:08:23;;;;;;;2.35;1.20;;;14.70;99.90;;;;;;5013551;28;20365;-59
2023/09/02 04:10:51;;;;;;;9.02;1.95;;;14.70;99.90;;;;;;5011607;28;20899;-59
2023/09/02 04:13:22;;;;;;;6.93;1.70;;;14.70;99.90;;;;;;5011794;28;20214;-59
2023/09/02 04:15:50;;;;;;;4.80;1.20;;;14.70;99.90;;;;;;5013996;28;20281;-60
2023/09/02 04:18:18;;;;;;;8.80;1.30;;;14.70;99.90;;;;;;5010871;28;20238;-60
2023/09/02 04:20:48;;;;;;;3.40;1.10;;;14.70;99.90;;;;;;5016493;28;20592;-60
2023/09/02 04:23:15;;;;;;;5.95;1.45;;;14.70;99.90;;;;;;5016514;28;20717;-59
2023/09/02 04:25:46;;;;;;;5.22;1.33;;;14.70;99.90;;;;;;5011222;28;20338;-59
2023/09/02 04:28:14;;;;;;;2.63;1.08;;;14.80;99.90;;;;;;5010186;28;20329;-59
2023/09/02 04:30:42;;;;;;;3.47;1.17;;;14.80;99.90;;;;;;5015388;28;20672;-59
2023/09/02 04:33:10;;;;;;;2.80;1.45;;;14.80;99.90;;;;;;5011358;28;20249;-59
2023/09/02 04:35:38;;;;;;;4.40;1.50;;;14.80;99.90;;;;;;5008946;28;20235;-59
2023/09/02 04:38:08;;;;;;;3.30;1.15;;;14.80;99.90;;;;;;5008856;28;20560;-59
2023/09/02 04:40:36;;;;;;;3.20;1.35;;;14.80;99.90;;;;;;5013758;28;20207;-60
2023/09/02 04:43:05;;;;;;;4.25;1.15;;;14.80;99.90;;;;;;5023479;28;20329;-60
2023/09/02 04:45:33;;;;;;;4.38;1.13;;;14.80;99.90;;;;;;5012174;28;21449;-60
2023/09/02 04:48:02;;;;;;;5.55;1.30;;;14.80;99.90;;;;;;5009298;28;20246;-60
2023/09/02 04:50:30;;;;;;;9.20;1.45;;;14.80;99.90;;;;;;5012968;28;20203;-60
2023/09/02 04:52:58;;;;;;;4.05;1.20;;;14.80;99.90;;;;;;5022869;28;20670;-60
2023/09/02 04:55:28;;;;;;;3.38;1.20;;;14.80;99.90;;;;;;5014256;28;20285;-60
2023/09/02 04:57:57;;;;;;;3.60;1.27;;;14.80;99.90;;;;;;4996373;28;20351;-60
2023/09/02 05:00:25;;;;;;;5.05;1.20;;;14.80;99.90;;;;;;5011522;28;20199;-60
2023/09/02 05:02:53;;;;;;;1.60;1.50;;;14.90;99.90;;;;;;5011502;28;20623;-61
2023/09/02 05:05:22;;;;;;;5.75;1.35;;;14.90;99.90;;;;;;5011423;28;20281;-60
2023/09/02 05:07:50;;;;;;;4.05;1.15;;;14.90;99.90;;;;;;5011331;28;20211;-60
2023/09/02 05:10:19;;;;;;;4.15;1.50;;;14.90;99.90;;;;;;5011750;28;20604;-59
2023/09/02 05:12:48;;;;;;;2.17;1.30;;;15.00;99.90;;;;;;5012713;28;20281;-59
2023/09/02 05:15:16;;;;;;;3.58;1.65;;;15.00;99.90;;;;;;5012321;28;20262;-60
2023/09/02 05:17:44;;;;;;;3.92;1.27;;;15.00;99.90;;;;;;5013004;28;20239;-60
2023/09/02 05:20:12;;;;;;;4.78;1.48;;;15.00;99.90;;;;;;5011065;28;20295;-60
2023/09/02 05:22:40;;;;;;;2.15;1.60;;;15.00;99.90;;;;;;5009620;28;20207;-60
2023/09/02 05:25:09;;;;;;;6.43;1.27;;;15.00;99.90;;;;;;5011149;28;20203;-59
2023/09/02 05:27:38;;;;;;;4.40;1.10;;;15.10;99.90;;;;;;5011459;28;20782;-59
2023/09/02 05:30:08;;;;;;;1.63;1.23;;;15.10;99.90;;;;;;5013297;28;20234;-60
2023/09/02 05:32:36;;;;;;;2.67;1.20;;;15.10;99.90;;;;;;5012873;28;20663;-60
2023/09/02 05:35:05;;;;;;;4.40;1.38;;;15.10;99.90;;;;;;5015071;28;20211;-60
2023/09/02 05:37:33;;;;;;;3.90;1.45;;;15.10;99.90;;;;;;5014951;28;20728;-60
2023/09/02 05:40:02;;;;;;;4.05;1.42;;;15.10;99.90;;;;;;5014146;28;20589;-60
2023/09/02 05:42:30;;;;;;;7.55;1.50;;;15.10;99.90;;;;;;5013540;28;20293;-60
2023/09/02 05:44:58;;;;;;;3.17;1.35;;;15.10;99.90;;;;;;5020131;28;20252;-60
2023/09/02 05:47:27;;;;;;;3.92;1.52;;;15.10;99.90;;;;;;5014513;28;20621;-60
2023/09/02 05:49:55;;;;;;;5.57;1.67;;;15.10;99.90;;;;;;5017222;28;20645;-58
2023/09/02 05:52:23;;;;;;;4.22;1.33;;;15.20;99.90;;;;;;5016919;28;20820;-60
2023/09/02 05:54:51;;;;;;;4.38;1.50;;;15.20;99.90;;;;;;5014584;28;20610;-60
2023/09/02 05:57:19;;;;;;;5.05;1.75;;;15.20;99.90;;;;;;5016052;28;20710;-60
2023/09/02 05:59:47;;;;;;;5.90;1.98;;;15.20;99.90;;;;;;5017460;28;20304;-63
2023/09/02 06:02:15;;;;;;;4.35;1.80;;;15.30;99.90;;;;;;5015166;28;20281;-63
2023/09/02 06:04:44;;;;;;;7.55;2.05;;;15.30;99.90;;;;;;5013760;28;20254;-63
2023/09/02 06:07:12;;;;;;;5.50;3.00;;;15.40;99.90;;;;;;5016957;28;20285;-62
2023/09/02 06:09:40;;;;;;;4.70;3.08;;;15.50;99.90;;;;;;5017317;28;20266;-63
2023/09/02 06:12:08;;;;;;;4.78;2.55;;;15.50;99.90;;;;;;5017233;28;20238;-62
2023/09/02 06:14:36;;;;;;;4.63;2.72;;;15.50;99.90;;;;;;5016634;28;20204;-63
2023/09/02 06:17:04;;;;;;;3.03;2.83;;;15.60;99.90;;;;;;5017389;28;20230;-63
2023/09/02 06:19:32;;;;;;;3.92;2.83;;;15.60;99.90;;;;;;5016423;28;20559;-63
2023/09/02 06:22:02;;;;;;;8.60;3.35;;;15.70;99.90;;;;;;5013942;28;20316;-63
2023/09/02 06:24:29;;;;;;;3.00;2.90;;;15.80;99.90;;;;;;5012634;28;20203;-62
2023/09/02 06:27:03;;;;;;;4.80;3.35;;;15.80;99.90;;;;;;5009357;28;20297;-63
2023/09/02 06:29:32;;;;;;;4.30;3.90;;;15.90;99.90;;;;;;5011178;28;20231;-63
2023/09/02 06:32:00;;;;;;;6.53;4.22;;;16.00;99.90;;;;;;5012470;28;20235;-63
2023/09/02 06:34:28;;;;;;;3.42;3.22;;;16.00;99.90;;;;;;5010619;28;20285;-63
2023/09/02 06:36:56;;;;;;;6.13;4.15;;;16.10;99.90;;;;;;5018986;28;20241;-63
2023/09/02 06:39:25;;;;;;;5.72;4.05;;;16.20;99.90;;;;;;5019708;28;20649;-63
2023/09/02 06:41:53;;;;;;;5.07;4.45;;;16.20;99.90;;;;;;5017234;28;20618;-63
2023/09/02 06:44:21;;;;;;;5.15;4.65;;;16.30;99.90;;;;;;5011935;28;20281;-64
2023/09/02 06:46:49;;;;;;;5.38;4.82;;;16.30;99.90;;;;;;5011916;28;20677;-63
2023/09/02 06:49:17;;;;;;;7.70;4.60;;;16.30;99.90;;;;;;5012125;28;20208;-63
2023/09/02 06:51:45;;;;;;;7.53;5.03;;;16.40;99.90;;;;;;5012453;28;20239;-62
2023/09/02 06:54:13;;;;;;;6.20;5.32;;;16.50;99.90;;;;;;5012126;28;20207;-64
2023/09/02 06:56:42;;;;;;;6.40;5.80;;;16.60;99.90;;;;;;5014655;28;20258;-63
2023/09/02 06:59:10;;;;;;;7.32;5.15;;;16.60;99.90;;;;;;5012217;28;20207;-63
2023/09/02 07:01:38;;;;;;;5.25;4.95;;;16.70;99.90;;;;;;5009805;28;20246;-62
2023/09/02 07:04:06;;;;;;;6.40;6.00;;;16.70;99.90;;;;;;5011045;28;20231;-62
2023/09/02 07:06:34;;;;;;;5.88;5.50;;;16.80;99.90;;;;;;5011375;28;20226;-63
2023/09/02 07:09:02;;;;;;;5.47;4.97;;;16.80;99.90;;;;;;5012199;28;20207;-63
2023/09/02 07:11:30;;;;;;;6.30;5.50;;;16.80;99.90;;;;;;5010766;28;20223;-63
2023/09/02 07:13:59;;;;;;;5.65;5.13;;;16.80;99.90;;;;;;5012769;28;20622;-63
2023/09/02 07:16:27;;;;;;;6.32;5.68;;;16.80;99.90;;;;;;5009773;28;20219;-61
2023/09/02 07:18:57;;;;;;;6.07;5.57;;;16.90;99.90;;;;;;5013301;28;20218;-62
2023/09/02 07:21:25;;;;;;;5.63;4.80;;;16.90;99.90;;;;;;5014919;28;20199;-63
2023/09/02 07:23:53;;;;;;;6.03;5.55;;;16.90;99.90;;;;;;5009774;28;20294;-63
2023/09/02 07:26:27;;;;;;;5.22;4.93;;;17.00;99.90;;;;;;5013820;28;20713;-63
2023/09/02 07:28:55;;;;;;;5.53;5.22;;;17.10;99.90;;;;;;5013692;28;20306;-62
2023/09/02 07:31:24;;;;;;;5.22;4.93;;;17.10;99.90;;;;;;5016364;28;20273;-64
2023/09/02 07:33:52;;;;;;;5.93;5.57;;;17.10;99.90;;;;;;5015399;28;20286;-62
2023/09/02 07:36:20;;;;;;;5.05;4.75;;;17.10;99.90;;;;;;5016574;28;20242;-62
2023/09/02 07:38:48;;;;;;;4.32;4.03;;;17.10;99.90;;;;;;5011823;28;20214;-63
2023/09/02 07:41:16;;;;;;;4.60;4.20;;;17.20;99.90;;;;;;5016524;28;20291;-63
2023/09/02 07:43:44;;;;;;;5.65;5.10;;;17.20;99.90;;;;;;5015216;28;20246;-63
2023/09/02 07:46:12;;;;;;;4.68;4.38;;;17.30;99.90;;;;;;5011262;28;20222;-63
2023/09/02 07:48:43;;;;;;;11.88;4.50;;;17.30;99.90;;;;;;5008495;28;20741;-62
2023/09/02 07:51:11;;;;;;;11.32;4.20;;;17.40;99.90;;;;;;5014688;28;20325;-62
2023/09/02 07:53:39;;;;;;;4.75;3.60;;;17.70;99.90;;;;;;5008162;28;20264;-62
2023/09/02 07:56:07;;;;;;;5.88;3.70;;;18.00;99.90;;;;;;5021924;28;20273;-62
2023/09/02 07:58:34;;;;;;;7.78;4.00;;;18.20;99.90;;;;;;5022284;28;20260;-63
2023/09/02 08:01:03;;;;;;;4.70;3.55;;;18.40;99.90;;;;;;5021106;28;20263;-62
2023/09/02 08:03:31;;;;;;;3.92;3.53;;;18.50;99.90;;;;;;5015099;28;20280;-62
2023/09/02 08:06:07;;;;;;;3.95;3.60;;;18.70;99.90;;;;;;5014125;28;20309;-63
2023/09/02 08:08:35;;;;;;;3.05;2.83;;;18.80;99.90;;;;;;5012320;28;20260;-62
2023/09/02 08:11:03;;;;;;;3.45;3.15;;;18.90;99.90;;;;;;5014075;28;20281;-63
2023/09/02 08:13:31;;;;;;;2.92;2.72;;;18.90;99.90;;;;;;5016205;28;20648;-59
2023/09/02 08:15:59;;;;;;;3.42;2.08;;;19.10;99.90;;;;;;5012150;28;20405;-59
2023/09/02 08:18:27;;;;;;;2.78;2.67;;;19.20;99.90;;;;;;5016776;28;20693;-58
2023/09/02 08:20:55;;;;;;;2.35;1.80;;;19.30;99.90;;;;;;5014147;28;20202;-59
2023/09/02 08:23:25;;;;;;;2.50;2.30;;;19.40;99.90;;;;;;5022889;28;20238;-57
2023/09/02 08:25:53;;;;;;;2.63;2.47;;;19.50;99.90;;;;;;5013911;28;20207;-59
2023/09/02 08:28:21;;;;;;;1.88;1.88;;;19.60;99.90;;;;;;5015232;28;20206;-56
2023/09/02 08:30:50;;;;;;;2.38;2.38;;;19.60;99.90;;;;;;5025555;28;20285;-56
2023/09/02 08:33:18;;;;;;;2.25;2.20;;;19.60;99.90;;;;;;5021860;28;20203;-59
2023/09/02 08:35:47;;;;;;;2.17;2.08;;;19.50;99.90;;;;;;5024375;28;20314;-59
2023/09/02 08:38:15;;;;;;;1.92;1.83;;;19.40;99.90;;;;;;5023719;28;20206;-59
2023/09/02 08:40:45;;;;;;;1.63;1.52;;;19.40;99.90;;;;;;5017889;28;20202;-55
2023/09/02 08:43:14;;;;;;;1.65;1.58;;;19.50;99.90;;;;;;5014669;28;20234;-59
2023/09/02 08:45:42;;;;;;;2.05;1.50;;;19.70;99.90;;;;;;5016784;28;20218;-56
2023/09/02 08:48:10;;;;;;;2.00;1.90;;;19.80;99.90;;;;;;5013676;28;20241;-59
2023/09/02 08:50:38;;;;;;;2.13;1.60;;;20.00;99.90;;;;;;5009986;28;20221;-58
2023/09/02 08:53:06;;;;;;;1.00;1.00;;;20.10;99.90;;;;;;5027427;28;20264;-58
2023/09/02 08:55:34;;;;;;;1.70;1.55;;;20.30;99.90;;;;;;5023259;28;20276;-59
2023/09/02 08:58:03;;;;;;;1.80;1.70;;;20.50;99.90;;;;;;5011948;28;20206;-58
2023/09/02 09:00:31;;;;;;;2.63;1.38;;;20.40;99.90;;;;;;5028884;28;20207;-59
2023/09/02 09:02:59;;;;;;;1.17;1.17;;;20.40;99.90;;;;;;5026852;28;20223;-58
2023/09/02 09:05:27;;;;;;;1.75;1.65;;;20.60;99.90;;;;;;5019850;28;20605;-59
2023/09/02 09:07:55;;;;;;;1.02;0.90;;;20.70;99.90;;;;;;5023973;28;20211;-54
2023/09/02 09:10:23;;;;;;;1.33;1.23;;;20.70;99.90;;;;;;5021286;28;20586;-58
2023/09/02 09:12:51;;;;;;;1.10;1.10;;;20.70;99.90;;;;;;5018532;28;20749;-59
2023/09/02 09:15:21;;;;;;;2.50;0.90;;;20.90;99.90;;;;;;5024882;28;20239;-55
2023/09/02 09:17:49;;;;;;;1.60;0.98;;;21.10;99.90;;;;;;5007510;28;20206;-56
2023/09/02 09:20:17;;;;;;;1.65;1.40;;;21.30;99.90;;;;;;5019580;28;20584;-56
2023/09/02 09:22:45;;;;;;;1.15;1.15;;;21.40;99.90;;;;;;5011243;28;20273;-55
2023/09/02 09:25:13;;;;;;;1.17;1.15;;;21.60;99.90;;;;;;5014608;28;20237;-58
2023/09/02 09:27:41;;;;;;;1.95;1.33;;;21.60;99.90;;;;;;5024064;28;20284;-59
2023/09/02 09:30:11;;;;;;;1.85;1.00;;;21.70;99.90;;;;;;5011774;28;20553;-56
2023/09/02 09:32:41;;;;;;;3.63;1.08;;;21.80;99.90;;;;;;5011148;28;20222;-56
2023/09/02 09:35:09;;;;;;;1.13;1.08;;;22.00;99.90;;;;;;5011088;28;20272;-56
2023/09/02 09:37:52;;;;;;;3.10;0.93;;;22.10;99.90;;;;;;5010974;28;20237;-56
2023/09/02 09:40:28;;;;;;;1.02;0.90;;;22.30;99.90;;;;;;5011569;28;20207;-52
2023/09/02 09:42:56;;;;;;;1.00;0.90;;;22.60;99.90;;;;;;5011319;28;20198;-56
2023/09/02 09:45:24;;;;;;;1.80;1.08;;;22.70;99.90;;;;;;5011042;28;20258;-55
2023/09/02 09:47:54;;;;;;;1.17;0.80;;;22.50;99.90;;;;;;5012954;28;20241;-58
2023/09/02 09:50:22;;;;;;;0.82;0.82;;;22.40;99.90;;;;;;5018395;28;20199;-58
2023/09/02 09:53:01;;;;;;;0.88;0.88;;;22.50;99.90;;;;;;5015605;28;20222;-59
2023/09/02 09:55:30;;;;;;;1.60;0.80;;;22.80;99.90;;;;;;5015230;28;20233;-58
2023/09/02 09:57:59;;;;;;;0.60;0.60;;;23.10;99.90;;;;;;5010938;28;20667;-58
2023/09/02 10:00:28;;;;;;;0.95;0.70;;;23.40;99.90;;;;;;5024456;28;20315;-56
2023/09/02 10:02:58;;;;;;;0.90;0.90;;;23.60;99.90;;;;;;5018153;28;20257;-56
2023/09/02 10:05:26;;;;;;;0.75;0.75;;;23.80;99.90;;;;;;5009606;28;20254;-56
2023/09/02 10:07:59;;;;;;;2.75;0.80;;;23.70;99.90;;;;;;5010643;28;20203;-55
2023/09/02 10:10:30;;;;;;;0.80;0.80;;;24.00;99.90;;;;;;5010048;28;20677;-54
2023/09/02 10:12:59;;;;;;;2.08;0.80;;;24.30;99.90;;;;;;5013056;28;20265;-53
2023/09/02 10:15:27;;;;;;;0.60;0.60;;;24.50;99.90;;;;;;5013978;28;20277;-56
2023/09/02 10:17:57;;;;;;;2.97;0.70;;;24.60;99.90;;;;;;5013729;28;20636;-58
2023/09/02 10:20:27;;;;;;;1.25;0.75;;;24.80;99.90;;;;;;5015113;28;20277;-58
2023/09/02 10:22:55;;;;;;;0.75;0.70;;;24.90;99.90;;;;;;5014426;28;20238;-58
2023/09/02 10:25:25;;;;;;;1.10;0.68;;;24.80;99.90;;;;;;5014185;28;20280;-56
2023/09/02 10:28:00;;;;;;;0.60;0.60;;;24.70;99.90;;;;;;5014553;28;20232;-56
2023/09/02 10:30:32;;;;;;;2.15;0.60;;;24.90;99.90;;;;;;5014265;28;20209;-53
2023/09/02 10:33:08;;;;;;;0.65;0.60;;;25.30;99.90;;;;;;5012457;28;20328;-58
2023/09/02 10:35:36;;;;;;;1.75;0.70;;;25.30;99.90;;;;;;5014021;28;20230;-58
2023/09/02 10:38:04;;;;;;;0.63;0.63;;;25.60;99.90;;;;;;5057124;23;20749;-75
2023/09/02 10:40:38;;;;;;;0.68;0.68;;;26.00;99.90;;;;;;5053810;28;20859;-75
2023/09/02 10:43:06;;;;;;;0.60;0.60;;;26.40;99.90;;;;;;5053958;28;20251;-75
2023/09/02 10:45:34;;;;;;;0.90;0.60;;;26.40;99.90;;;;;;5053731;28;20209;-75
2023/09/02 10:48:04;;;;;;;0.47;0.47;;;26.70;99.90;;;;;;5078306;22;20306;-56
2023/09/02 10:50:33;;;;;;;1.35;0.60;;;26.80;99.90;;;;;;5073247;28;20204;-56
2023/09/02 10:53:01;;;;;;;0.50;0.50;;;26.80;99.90;;;;;;5070593;28;20232;-57
2023/09/02 10:55:58;;;;;;;0.63;0.60;;;26.90;99.90;;;;;;5068952;28;20677;-54
2023/09/02 10:58:25;;;;;;;0.43;0.43;;;26.80;99.90;;;;;;5071459;28;20725;-53
2023/09/02 11:00:53;;;;;;;1.38;0.60;;;27.20;99.90;;;;;;5071787;28;20208;-53
2023/09/02 11:03:46;;;;;;;1.83;0.52;;;27.70;99.90;;;;;;5071800;28;20608;-56
2023/09/02 11:06:16;;;;;;;0.55;0.55;;;28.20;99.90;;;;;;5066263;28;20209;-54
2023/09/02 11:08:46;;;;;;;1.20;0.60;;;28.40;99.90;;;;;;5068278;28;21406;-55
2023/09/02 11:11:14;;;;;;;1.15;0.55;;;28.40;99.90;;;;;;5064729;28;20204;-53
2023/09/02 11:14:20;;;;;;;0.40;0.40;;;28.60;99.90;;;;;;5071892;28;20312;-53
2023/09/02 11:17:21;;;;;;;0.65;0.65;;;28.80;99.90;;;;;;5069954;28;20232;-54
2023/09/02 11:19:57;;;;;;;1.08;0.55;;;28.70;99.90;;;;;;5069128;28;20216;-53
2023/09/02 11:22:51;;;;;;;0.90;0.40;;;28.40;99.90;;;;;;5067146;28;20247;-54
2023/09/02 11:25:32;;;;;;;0.50;0.50;;;28.40;99.90;;;;;;5070114;28;20224;-54
2023/09/02 11:28:01;;;;;;;0.63;0.63;;;28.50;99.90;;;;;;5066027;28;20228;-54
2023/09/02 11:30:30;;;;;;;1.08;0.50;;;28.70;99.90;;;;;;5070474;28;20583;-54
2023/09/02 11:32:58;;;;;;;0.43;0.43;;;29.10;99.90;;;;;;5071763;28;20228;-53
2023/09/02 11:35:28;;;;;;;0.90;0.40;;;29.60;99.90;;;;;;5069516;28;20552;-54
2023/09/02 11:37:56;;;;;;;0.40;0.40;;;30.00;99.90;;;;;;5070916;28;20290;-54
2023/09/02 11:40:25;;;;;;;0.40;0.40;;;30.30;99.90;;;;;;5069184;28;20283;-54
2023/09/02 11:42:54;;;;;;;0.50;0.50;;;30.60;99.90;;;;;;5071141;28;20204;-54
2023/09/02 11:45:22;;;;;;;0.40;0.40;;;30.50;99.90;;;;;;5070154;28;20205;-57
2023/09/02 11:47:51;;;;;;;0.43;0.43;;;30.50;99.90;;;;;;5063219;28;20236;-54
2023/09/02 11:50:24;;;;;;;0.55;0.55;;;30.60;99.90;;;;;;5071472;28;20295;-56
2023/09/02 11:52:55;;;;;;;0.40;0.40;;;30.90;99.90;;;;;;5063046;28;20307;-53
2023/09/02 11:55:23;;;;;;;0.40;0.40;;;30.60;99.90;;;;;;5070251;28;20246;-55
2023/09/02 11:57:51;;;;;;;0.40;0.40;;;30.60;99.90;;;;;;5069423;28;20224;-55
2023/09/02 12:00:20;;;;;;;0.52;0.52;;;30.70;99.90;;;;;;5071209;28;20204;-53
2023/09/02 12:02:48;;;;;;;0.50;0.50;;;30.70;99.90;;;;;;5068455;28;20297;-54
2023/09/02 12:05:16;;;;;;;0.50;0.50;;;30.30;99.90;;;;;;5069386;28;20577;-53
2023/09/02 12:07:45;;;;;;;1.05;0.47;;;30.40;99.90;;;;;;5067894;28;20225;-53
2023/09/02 12:10:16;;;;;;;0.60;0.60;;;30.60;99.90;;;;;;5070848;28;20288;-54
2023/09/02 12:12:44;;;;;;;0.77;0.75;;;30.60;99.90;;;;;;5069212;28;20220;-53
2023/09/02 12:15:13;;;;;;;1.33;0.60;;;31.00;99.90;;;;;;5068718;28;20255;-53
2023/09/02 12:17:41;;;;;;;0.50;0.50;;;31.50;99.90;;;;;;5068945;28;20247;-55
2023/09/02 12:20:11;;;;;;;0.60;0.60;;;31.80;99.90;;;;;;5069609;28;20208;-53
2023/09/02 12:22:39;;;;;;;0.65;0.65;;;31.90;99.90;;;;;;5064664;28;20233;-54
2023/09/02 12:25:12;;;;;;;1.48;0.50;;;32.20;99.90;;;;;;5069661;28;20205;-54
2023/09/02 12:27:41;;;;;;;1.45;0.60;;;31.80;99.90;;;;;;5068709;28;20255;-54
2023/09/02 12:30:11;;;;;;;0.50;0.50;;;31.10;99.90;;;;;;5068472;28;20205;-54
2023/09/02 12:32:39;;;;;;;1.35;0.50;;;30.80;99.90;;;;;;5068684;28;20216;-54
2023/09/02 12:35:09;;;;;;;1.67;0.57;;;31.10;99.90;;;;;;5070395;28;20687;-54
2023/09/02 12:37:37;;;;;;;1.08;0.55;;;31.60;99.90;;;;;;5070604;28;20231;-54
2023/09/02 12:40:13;;;;;;;1.35;0.60;;;31.90;99.90;;;;;;5071157;28;20208;-54
2023/09/02 12:42:43;;;;;;;1.90;0.55;;;32.20;99.90;;;;;;5071773;28;20644;-54
2023/09/02 12:45:10;;;;;;;2.83;0.80;;;32.40;99.90;;;;;;5071457;28;20270;-60
2023/09/02 12:47:41;;;;;;;0.50;0.50;;;32.60;99.90;;;;;;5071488;28;20324;-61
2023/09/02 12:50:10;;;;;;;0.70;0.70;;;32.50;99.90;;;;;;5071798;28;20283;-58
2023/09/02 12:52:38;;;;;;;0.70;0.70;;;32.60;99.90;;;;;;5071249;28;20308;-57
2023/09/02 12:55:06;;;;;;;0.60;0.60;;;32.70;99.90;;;;;;5071101;28;20701;-59
2023/09/02 12:57:36;;;;;;;0.70;0.70;;;32.90;99.90;;;;;;5069712;28;20224;-58